sensor_id;sensor_type;location;lat;lon;timestamp;pressure;altitude;pressure_sealevel;temperature;humidity
52535;BME280;38443;53.164;5.802;2022-11-15T00:02:00;100969.78;;;5.70;98.26
52535;BME280;38443;53.164;5.802;2022-11-15T00:05:00;100960.00;;;5.72;98.18
52535;BME280;38443;53.164;5.802;2022-11-15T00:11:29;100962.63;;;5.77;98.20
52535;BME280;38443;53.164;5.802;2022-11-15T00:14:00;100963.50;;;5.79;98.00
52535;BME280;38443;53.164;5.802;2022-11-15T00:16:31;100964.41;;;5.79;98.41
52535;BME280;38443;53.164;5.802;2022-11-15T00:19:30;100968.81;;;5.80;98.24
52535;BME280;38443;53.164;5.802;2022-11-15T00:22:15;100965.28;;;5.82;97.31
52535;BME280;38443;53.164;5.802;2022-11-15T00:24:40;100958.13;;;5.85;96.85
52535;BME280;38443;53.164;5.802;2022-11-15T00:27:21;100953.72;;;5.86;96.67
52535;BME280;38443;53.164;5.802;2022-11-15T00:29:52;100958.13;;;5.87;96.78
52535;BME280;38443;53.164;5.802;2022-11-15T00:32:31;100950.16;;;5.87;97.11
52535;BME280;38443;53.164;5.802;2022-11-15T00:35:58;100947.56;;;5.82;96.79
52535;BME280;38443;53.164;5.802;2022-11-15T00:38:50;100950.19;;;5.84;96.53
52535;BME280;38443;53.164;5.802;2022-11-15T00:41:57;100940.47;;;5.81;96.27
52535;BME280;38443;53.164;5.802;2022-11-15T00:44:44;100936.06;;;5.78;96.14
52535;BME280;38443;53.164;5.802;2022-11-15T00:47:29;100929.88;;;5.75;96.06
52535;BME280;38443;53.164;5.802;2022-11-15T00:53:32;100927.28;;;5.67;96.06
52535;BME280;38443;53.164;5.802;2022-11-15T01:02:40;100918.50;;;5.60;96.49
52535;BME280;38443;53.164;5.802;2022-11-15T01:05:05;100922.06;;;5.56;96.18
52535;BME280;38443;53.164;5.802;2022-11-15T01:07:31;100910.59;;;5.56;96.49
52535;BME280;38443;53.164;5.802;2022-11-15T01:09:56;100914.16;;;5.53;96.50
52535;BME280;38443;53.164;5.802;2022-11-15T01:12:23;100911.50;;;5.50;96.42
52535;BME280;38443;53.164;5.802;2022-11-15T01:14:49;100898.22;;;5.50;96.72
52535;BME280;38443;53.164;5.802;2022-11-15T01:17:14;100912.41;;;5.49;96.99
52535;BME280;38443;53.164;5.802;2022-11-15T01:19:40;100907.97;;;5.47;96.77
52535;BME280;38443;53.164;5.802;2022-11-15T01:22:05;100905.31;;;5.48;97.06
52535;BME280;38443;53.164;5.802;2022-11-15T01:24:30;100903.59;;;5.44;97.51
52535;BME280;38443;53.164;5.802;2022-11-15T01:26:55;100915.06;;;5.46;97.68
52535;BME280;38443;53.164;5.802;2022-11-15T01:29:23;100908.88;;;5.46;97.78
52535;BME280;38443;53.164;5.802;2022-11-15T01:31:48;100911.59;;;5.39;97.60
52535;BME280;38443;53.164;5.802;2022-11-15T01:34:14;100916.03;;;5.36;97.72
52535;BME280;38443;53.164;5.802;2022-11-15T01:36:40;100903.72;;;5.26;97.47
52535;BME280;38443;53.164;5.802;2022-11-15T01:39:05;100891.38;;;5.22;97.71
52535;BME280;38443;53.164;5.802;2022-11-15T01:41:31;100890.53;;;5.13;98.39
52535;BME280;38443;53.164;5.802;2022-11-15T01:47:03;100917.06;;;5.09;98.34
52535;BME280;38443;53.164;5.802;2022-11-15T01:49:33;100917.09;;;5.07;98.11
52535;BME280;38443;53.164;5.802;2022-11-15T01:52:02;100914.44;;;5.04;98.29
52535;BME280;38443;53.164;5.802;2022-11-15T01:54:28;100916.22;;;5.04;98.21
52535;BME280;38443;53.164;5.802;2022-11-15T01:56:55;100918.91;;;4.96;98.56
52535;BME280;38443;53.164;5.802;2022-11-15T01:59:24;100902.13;;;4.95;99.00
52535;BME280;38443;53.164;5.802;2022-11-15T02:01:49;100900.38;;;4.88;98.50
52535;BME280;38443;53.164;5.802;2022-11-15T02:04:17;100894.25;;;4.83;98.56
52535;BME280;38443;53.164;5.802;2022-11-15T02:06:46;100903.06;;;4.82;98.82
52535;BME280;38443;53.164;5.802;2022-11-15T02:09:14;100890.72;;;4.75;99.19
52535;BME280;38443;53.164;5.802;2022-11-15T02:11:41;100889.88;;;4.71;98.87
52535;BME280;38443;53.164;5.802;2022-11-15T02:14:07;100896.06;;;4.69;99.19
52535;BME280;38443;53.164;5.802;2022-11-15T02:16:43;100897.84;;;4.65;99.31
52535;BME280;38443;53.164;5.802;2022-11-15T02:30:23;100867.75;;;4.71;99.61
52535;BME280;38443;53.164;5.802;2022-11-15T02:35:57;100878.38;;;4.74;100.00
52535;BME280;38443;53.164;5.802;2022-11-15T02:38:34;100858.03;;;4.73;100.00
52535;BME280;38443;53.164;5.802;2022-11-15T02:41:15;100864.25;;;4.73;100.00
52535;BME280;38443;53.164;5.802;2022-11-15T02:43:49;100861.59;;;4.73;100.00
52535;BME280;38443;53.164;5.802;2022-11-15T02:49:27;100850.97;;;4.73;100.00
52535;BME280;38443;53.164;5.802;2022-11-15T02:51:54;100848.28;;;4.75;100.00
52535;BME280;38443;53.164;5.802;2022-11-15T02:54:23;100850.94;;;4.76;100.00
52535;BME280;38443;53.164;5.802;2022-11-15T02:56:53;100847.41;;;4.77;100.00
52535;BME280;38443;53.164;5.802;2022-11-15T03:03:03;100840.34;;;4.79;100.00
52535;BME280;38443;53.164;5.802;2022-11-15T03:08:10;100829.72;;;4.78;100.00
52535;BME280;38443;53.164;5.802;2022-11-15T03:10:51;100827.09;;;4.78;100.00
52535;BME280;38443;53.164;5.802;2022-11-15T03:13:30;100829.72;;;4.79;100.00
52535;BME280;38443;53.164;5.802;2022-11-15T03:16:15;100827.09;;;4.78;100.00
52535;BME280;38443;53.164;5.802;2022-11-15T03:18:45;100828.84;;;4.77;100.00
52535;BME280;38443;53.164;5.802;2022-11-15T03:21:13;100822.66;;;4.77;100.00
52535;BME280;38443;53.164;5.802;2022-11-15T03:23:41;100816.47;;;4.78;100.00
52535;BME280;38443;53.164;5.802;2022-11-15T03:26:09;100815.59;;;4.77;100.00
52535;BME280;38443;53.164;5.802;2022-11-15T03:28:50;100808.53;;;4.78;100.00
52535;BME280;38443;53.164;5.802;2022-11-15T03:31:19;100815.56;;;4.80;100.00
52535;BME280;38443;53.164;5.802;2022-11-15T03:34:04;100808.47;;;4.83;100.00
52535;BME280;38443;53.164;5.802;2022-11-15T03:36:32;100796.13;;;4.83;100.00
52535;BME280;38443;53.164;5.802;2022-11-15T03:39:01;100805.81;;;4.86;100.00
52535;BME280;38443;53.164;5.802;2022-11-15T03:41:46;100797.88;;;4.87;100.00
52535;BME280;38443;53.164;5.802;2022-11-15T03:49:36;100790.75;;;4.94;100.00
52535;BME280;38443;53.164;5.802;2022-11-15T03:52:04;100794.25;;;4.94;100.00
52535;BME280;38443;53.164;5.802;2022-11-15T03:54:30;100793.34;;;4.98;100.00
52535;BME280;38443;53.164;5.802;2022-11-15T03:56:59;100797.75;;;5.01;100.00
52535;BME280;38443;53.164;5.802;2022-11-15T03:59:24;100798.66;;;5.02;100.00
52535;BME280;38443;53.164;5.802;2022-11-15T04:01:49;100794.19;;;5.05;100.00
52535;BME280;38443;53.164;5.802;2022-11-15T04:04:15;100791.56;;;5.05;100.00
52535;BME280;38443;53.164;5.802;2022-11-15T04:06:41;100781.81;;;5.07;100.00
52535;BME280;38443;53.164;5.802;2022-11-15T04:09:06;100782.69;;;5.08;100.00
52535;BME280;38443;53.164;5.802;2022-11-15T04:11:31;100790.59;;;5.11;100.00
52535;BME280;38443;53.164;5.802;2022-11-15T04:13:57;100779.09;;;5.12;100.00
52535;BME280;38443;53.164;5.802;2022-11-15T04:16:22;100783.50;;;5.14;100.00
52535;BME280;38443;53.164;5.802;2022-11-15T04:18:47;100785.28;;;5.15;100.00
52535;BME280;38443;53.164;5.802;2022-11-15T04:21:33;100785.25;;;5.17;100.00
52535;BME280;38443;53.164;5.802;2022-11-15T04:24:16;100789.66;;;5.19;100.00
52535;BME280;38443;53.164;5.802;2022-11-15T04:26:42;100781.66;;;5.23;100.00
52535;BME280;38443;53.164;5.802;2022-11-15T04:29:07;100790.50;;;5.25;100.00
52535;BME280;38443;53.164;5.802;2022-11-15T04:31:51;100786.97;;;5.26;100.00
52535;BME280;38443;53.164;5.802;2022-11-15T04:34:16;100783.38;;;5.30;100.00
52535;BME280;38443;53.164;5.802;2022-11-15T04:36:41;100788.66;;;5.33;100.00
52535;BME280;38443;53.164;5.802;2022-11-15T04:39:26;100785.09;;;5.35;100.00
52535;BME280;38443;53.164;5.802;2022-11-15T04:41:51;100786.84;;;5.39;100.00
52535;BME280;38443;53.164;5.802;2022-11-15T04:44:16;100785.06;;;5.40;100.00
52535;BME280;38443;53.164;5.802;2022-11-15T04:46:41;100779.69;;;5.45;100.00
52535;BME280;38443;53.164;5.802;2022-11-15T04:49:07;100775.25;;;5.47;100.00
52535;BME280;38443;53.164;5.802;2022-11-15T04:51:32;100765.50;;;5.50;100.00
52535;BME280;38443;53.164;5.802;2022-11-15T04:53:57;100770.78;;;5.52;100.00
52535;BME280;38443;53.164;5.802;2022-11-15T04:56:23;100764.56;;;5.56;100.00
52535;BME280;38443;53.164;5.802;2022-11-15T04:58:49;100764.50;;;5.59;100.00
52535;BME280;38443;53.164;5.802;2022-11-15T05:01:15;100760.94;;;5.63;100.00
52535;BME280;38443;53.164;5.802;2022-11-15T05:03:44;100761.78;;;5.67;100.00
52535;BME280;38443;53.164;5.802;2022-11-15T05:06:28;100770.59;;;5.72;100.00
52535;BME280;38443;53.164;5.802;2022-11-15T05:08:53;100770.53;;;5.76;100.00
52535;BME280;38443;53.164;5.802;2022-11-15T05:11:19;100764.28;;;5.80;100.00
52535;BME280;38443;53.164;5.802;2022-11-15T05:13:45;100769.59;;;5.84;100.00
52535;BME280;38443;53.164;5.802;2022-11-15T05:16:10;100770.44;;;5.86;100.00
52535;BME280;38443;53.164;5.802;2022-11-15T05:18:36;100771.25;;;5.91;100.00
52535;BME280;38443;53.164;5.802;2022-11-15T05:21:06;100770.34;;;5.95;100.00
52535;BME280;38443;53.164;5.802;2022-11-15T05:23:32;100772.06;;;6.01;100.00
52535;BME280;38443;53.164;5.802;2022-11-15T05:26:01;100762.28;;;6.04;100.00
52535;BME280;38443;53.164;5.802;2022-11-15T05:28:26;100766.69;;;6.05;100.00
52535;BME280;38443;53.164;5.802;2022-11-15T05:30:51;100764.88;;;6.12;100.00
52535;BME280;38443;53.164;5.802;2022-11-15T05:33:17;100755.94;;;6.16;100.00
52535;BME280;38443;53.164;5.802;2022-11-15T05:35:45;100756.75;;;6.21;100.00
52535;BME280;38443;53.164;5.802;2022-11-15T05:38:11;100756.72;;;6.26;100.00
52535;BME280;38443;53.164;5.802;2022-11-15T05:40:37;100753.97;;;6.32;100.00
52535;BME280;38443;53.164;5.802;2022-11-15T05:43:03;100757.50;;;6.34;100.00
52535;BME280;38443;53.164;5.802;2022-11-15T05:45:29;100761.84;;;6.39;100.00
52535;BME280;38443;53.164;5.802;2022-11-15T05:47:57;100748.47;;;6.46;100.00
52535;BME280;38443;53.164;5.802;2022-11-15T05:50:25;100756.38;;;6.50;100.00
52535;BME280;38443;53.164;5.802;2022-11-15T05:52:50;100756.31;;;6.53;100.00
52535;BME280;38443;53.164;5.802;2022-11-15T05:55:16;100752.78;;;6.54;100.00
52535;BME280;38443;53.164;5.802;2022-11-15T05:57:42;100751.78;;;6.62;100.00
52535;BME280;38443;53.164;5.802;2022-11-15T06:00:08;100764.16;;;6.66;100.00
52535;BME280;38443;53.164;5.802;2022-11-15T06:02:34;100753.44;;;6.70;100.00
52535;BME280;38443;53.164;5.802;2022-11-15T06:05:00;100759.59;;;6.72;100.00
52535;BME280;38443;53.164;5.802;2022-11-15T06:07:26;100754.19;;;6.78;100.00
52535;BME280;38443;53.164;5.802;2022-11-15T06:09:51;100758.53;;;6.84;100.00
52535;BME280;38443;53.164;5.802;2022-11-15T06:12:16;100762.03;;;6.88;100.00
52535;BME280;38443;53.164;5.802;2022-11-15T06:14:41;100757.56;;;6.90;100.00
52535;BME280;38443;53.164;5.802;2022-11-15T06:17:07;100759.28;;;6.94;100.00
52535;BME280;38443;53.164;5.802;2022-11-15T06:19:32;100752.09;;;6.97;100.00
52535;BME280;38443;53.164;5.802;2022-11-15T06:22:01;100762.72;;;7.01;100.00
52535;BME280;38443;53.164;5.802;2022-11-15T06:24:26;100759.16;;;7.02;100.00
52535;BME280;38443;53.164;5.802;2022-11-15T06:26:52;100761.75;;;7.06;100.00
52535;BME280;38443;53.164;5.802;2022-11-15T06:29:17;100760.81;;;7.07;100.00
52535;BME280;38443;53.164;5.802;2022-11-15T06:31:42;100761.66;;;7.12;100.00
52535;BME280;38443;53.164;5.802;2022-11-15T06:34:08;100765.19;;;7.13;100.00
52535;BME280;38443;53.164;5.802;2022-11-15T06:36:36;100770.41;;;7.17;100.00
52535;BME280;38443;53.164;5.802;2022-11-15T06:39:05;100775.78;;;7.16;100.00
52535;BME280;38443;53.164;5.802;2022-11-15T06:41:33;100776.66;;;7.16;100.00
52535;BME280;38443;53.164;5.802;2022-11-15T06:43:59;100786.38;;;7.17;100.00
52535;BME280;38443;53.164;5.802;2022-11-15T06:46:24;100789.88;;;7.23;100.00
52535;BME280;38443;53.164;5.802;2022-11-15T06:48:51;100792.50;;;7.26;100.00
52535;BME280;38443;53.164;5.802;2022-11-15T06:51:16;100797.75;;;7.27;100.00
52535;BME280;38443;53.164;5.802;2022-11-15T06:53:42;100788.88;;;7.28;100.00
52535;BME280;38443;53.164;5.802;2022-11-15T06:56:07;100792.38;;;7.32;100.00
52535;BME280;38443;53.164;5.802;2022-11-15T06:58:34;100790.56;;;7.34;100.00
52535;BME280;38443;53.164;5.802;2022-11-15T07:01:07;100800.19;;;7.41;100.00
52535;BME280;38443;53.164;5.802;2022-11-15T07:03:35;100799.31;;;7.41;100.00
52535;BME280;38443;53.164;5.802;2022-11-15T07:06:01;100798.38;;;7.43;100.00
52535;BME280;38443;53.164;5.802;2022-11-15T07:08:27;100786.84;;;7.46;100.00
52535;BME280;38443;53.164;5.802;2022-11-15T07:10:54;100805.41;;;7.49;100.00
52535;BME280;38443;53.164;5.802;2022-11-15T07:13:23;100800.94;;;7.49;100.00
52535;BME280;38443;53.164;5.802;2022-11-15T07:15:49;100798.25;;;7.52;100.00
52535;BME280;38443;53.164;5.802;2022-11-15T07:18:14;100796.34;;;7.57;100.00
52535;BME280;38443;53.164;5.802;2022-11-15T07:20:40;100799.88;;;7.59;100.00
52535;BME280;38443;53.164;5.802;2022-11-15T07:23:06;100805.16;;;7.63;100.00
52535;BME280;38443;53.164;5.802;2022-11-15T07:25:31;100808.56;;;7.71;100.00
52535;BME280;38443;53.164;5.802;2022-11-15T07:27:58;100812.09;;;7.71;100.00
52535;BME280;38443;53.164;5.802;2022-11-15T07:30:27;100822.72;;;7.74;100.00
52535;BME280;38443;53.164;5.802;2022-11-15T07:32:56;100817.31;;;7.77;100.00
52535;BME280;38443;53.164;5.802;2022-11-15T07:35:22;100808.41;;;7.80;100.00
52535;BME280;38443;53.164;5.802;2022-11-15T07:37:54;100819.88;;;7.84;100.00
52535;BME280;38443;53.164;5.802;2022-11-15T07:40:20;100826.03;;;7.86;100.00
52535;BME280;38443;53.164;5.802;2022-11-15T07:42:45;100823.34;;;7.87;100.00
52535;BME280;38443;53.164;5.802;2022-11-15T07:45:22;100810.00;;;7.89;100.00
52535;BME280;38443;53.164;5.802;2022-11-15T07:47:49;100816.19;;;7.91;100.00
52535;BME280;38443;53.164;5.802;2022-11-15T07:50:15;100813.47;;;7.94;100.00
52535;BME280;38443;53.164;5.802;2022-11-15T07:52:41;100814.28;;;7.97;100.00
52535;BME280;38443;53.164;5.802;2022-11-15T07:55:06;100800.81;;;8.04;100.00
52535;BME280;38443;53.164;5.802;2022-11-15T07:57:32;100806.16;;;8.04;100.00
52535;BME280;38443;53.164;5.802;2022-11-15T07:59:57;100804.34;;;8.06;100.00
52535;BME280;38443;53.164;5.802;2022-11-15T08:02:23;100807.94;;;8.05;100.00
52535;BME280;38443;53.164;5.802;2022-11-15T08:04:49;100811.47;;;8.05;100.00
52535;BME280;38443;53.164;5.802;2022-11-15T08:07:15;100807.84;;;8.08;100.00
52535;BME280;38443;53.164;5.802;2022-11-15T08:09:40;100801.63;;;8.09;100.00
52535;BME280;38443;53.164;5.802;2022-11-15T08:12:05;100796.25;;;8.12;100.00
52535;BME280;38443;53.164;5.802;2022-11-15T08:14:31;100816.63;;;8.16;100.00
52535;BME280;38443;53.164;5.802;2022-11-15T08:16:56;100805.94;;;8.16;100.00
52535;BME280;38443;53.164;5.802;2022-11-15T08:19:21;100818.38;;;8.15;100.00
52535;BME280;38443;53.164;5.802;2022-11-15T08:21:50;100808.56;;;8.17;100.00
52535;BME280;38443;53.164;5.802;2022-11-15T08:24:15;100808.50;;;8.21;100.00
52535;BME280;38443;53.164;5.802;2022-11-15T08:26:40;100810.22;;;8.23;100.00
52535;BME280;38443;53.164;5.802;2022-11-15T08:29:06;100810.94;;;8.31;100.00
52535;BME280;38443;53.164;5.802;2022-11-15T08:31:34;100806.38;;;8.38;100.00
52535;BME280;38443;53.164;5.802;2022-11-15T08:34:05;100817.59;;;8.55;100.00
52535;BME280;38443;53.164;5.802;2022-11-15T08:36:30;100809.25;;;8.71;100.00
52535;BME280;38443;53.164;5.802;2022-11-15T08:38:55;100804.63;;;8.79;100.00
52535;BME280;38443;53.164;5.802;2022-11-15T08:41:32;100798.09;;;8.92;100.00
52535;BME280;38443;53.164;5.802;2022-11-15T08:43:58;100798.94;;;8.94;100.00
52535;BME280;38443;53.164;5.802;2022-11-15T08:46:27;100803.34;;;8.95;100.00
52535;BME280;38443;53.164;5.802;2022-11-15T08:48:52;100798.97;;;8.93;100.00
52535;BME280;38443;53.164;5.802;2022-11-15T08:51:18;100792.78;;;8.91;100.00
52535;BME280;38443;53.164;5.802;2022-11-15T08:53:43;100783.06;;;8.88;100.00
52535;BME280;38443;53.164;5.802;2022-11-15T08:56:10;100785.78;;;8.87;100.00
52535;BME280;38443;53.164;5.802;2022-11-15T08:58:36;100772.53;;;8.82;100.00
52535;BME280;38443;53.164;5.802;2022-11-15T09:01:01;100772.53;;;8.82;100.00
52535;BME280;38443;53.164;5.802;2022-11-15T09:03:28;100770.75;;;8.83;100.00
52535;BME280;38443;53.164;5.802;2022-11-15T09:05:54;100771.63;;;8.83;100.00
52535;BME280;38443;53.164;5.802;2022-11-15T09:08:19;100778.72;;;8.84;100.00
52535;BME280;38443;53.164;5.802;2022-11-15T09:10:45;100775.09;;;8.87;100.00
52535;BME280;38443;53.164;5.802;2022-11-15T09:13:10;100773.28;;;8.87;100.00
52535;BME280;38443;53.164;5.802;2022-11-15T09:15:35;100774.94;;;8.93;100.00
52535;BME280;38443;53.164;5.802;2022-11-15T09:18:00;100769.50;;;8.97;100.00
52535;BME280;38443;53.164;5.802;2022-11-15T09:20:26;100767.66;;;8.99;100.00
52535;BME280;38443;53.164;5.802;2022-11-15T09:22:51;100768.50;;;9.02;100.00
52535;BME280;38443;53.164;5.802;2022-11-15T09:25:16;100768.44;;;9.05;100.00
52535;BME280;38443;53.164;5.802;2022-11-15T09:27:42;100763.94;;;9.07;100.00
52535;BME280;38443;53.164;5.802;2022-11-15T09:30:07;100766.59;;;9.08;100.00
52535;BME280;38443;53.164;5.802;2022-11-15T09:32:33;100773.59;;;9.12;100.00
52535;BME280;38443;53.164;5.802;2022-11-15T09:34:58;100769.94;;;9.16;100.00
52535;BME280;38443;53.164;5.802;2022-11-15T09:37:23;100770.84;;;9.15;100.00
52535;BME280;38443;53.164;5.802;2022-11-15T09:39:48;100768.28;;;9.11;100.00
52535;BME280;38443;53.164;5.802;2022-11-15T09:50:49;100765.00;;;8.99;100.00
52535;BME280;38443;53.164;5.802;2022-11-15T09:53:40;100763.22;;;9.00;100.00
52535;BME280;38443;53.164;5.802;2022-11-15T09:56:17;100767.59;;;9.03;100.00
52535;BME280;38443;53.164;5.802;2022-11-15T09:58:53;100758.59;;;9.07;100.00
52535;BME280;38443;53.164;5.802;2022-11-15T10:02:09;100754.97;;;9.09;100.00
52535;BME280;38443;53.164;5.802;2022-11-15T10:04:10;100745.09;;;9.13;100.00
52535;BME280;38443;53.164;5.802;2022-11-15T10:06:40;100740.56;;;9.16;100.00
52535;BME280;38443;53.164;5.802;2022-11-15T10:09:11;100744.88;;;9.22;100.00
52535;BME280;38443;53.164;5.802;2022-11-15T10:11:39;100748.25;;;9.29;100.00
52535;BME280;38443;53.164;5.802;2022-11-15T10:14:26;100736.56;;;9.34;100.00
52535;BME280;38443;53.164;5.802;2022-11-15T10:22:56;100740.53;;;9.52;100.00
52535;BME280;38443;53.164;5.802;2022-11-15T10:25:00;100734.13;;;9.58;100.00
52535;BME280;38443;53.164;5.802;2022-11-15T10:27:26;100731.31;;;9.64;100.00
52535;BME280;38443;53.164;5.802;2022-11-15T10:29:51;100724.06;;;9.68;100.00
52535;BME280;38443;53.164;5.802;2022-11-15T10:32:20;100726.63;;;9.72;100.00
52535;BME280;38443;53.164;5.802;2022-11-15T10:34:48;100733.66;;;9.76;100.00
52535;BME280;38443;53.164;5.802;2022-11-15T10:37:14;100723.81;;;9.77;100.00
52535;BME280;38443;53.164;5.802;2022-11-15T10:39:39;100726.38;;;9.80;100.00
52535;BME280;38443;53.164;5.802;2022-11-15T10:42:28;100728.16;;;9.81;100.00
52535;BME280;38443;53.164;5.802;2022-11-15T10:44:54;100718.34;;;9.82;100.00
52535;BME280;38443;53.164;5.802;2022-11-15T10:47:29;100713.09;;;9.78;100.00
52535;BME280;38443;53.164;5.802;2022-11-15T10:50:32;100716.59;;;9.81;100.00
52535;BME280;38443;53.164;5.802;2022-11-15T10:52:58;100711.19;;;9.82;100.00
52535;BME280;38443;53.164;5.802;2022-11-15T10:55:30;100702.25;;;9.83;100.00
52535;BME280;38443;53.164;5.802;2022-11-15T10:58:22;100703.13;;;9.84;100.00
52535;BME280;38443;53.164;5.802;2022-11-15T11:00:52;100710.28;;;9.83;100.00
52535;BME280;38443;53.164;5.802;2022-11-15T11:06:03;100688.75;;;9.88;100.00
52535;BME280;38443;53.164;5.802;2022-11-15T11:08:29;100694.06;;;9.89;100.00
52535;BME280;38443;53.164;5.802;2022-11-15T11:10:58;100689.50;;;9.93;100.00
52535;BME280;38443;53.164;5.802;2022-11-15T11:13:28;100692.06;;;9.96;100.00
52535;BME280;38443;53.164;5.802;2022-11-15T11:18:47;100701.69;;;10.03;100.00
52535;BME280;38443;53.164;5.802;2022-11-15T11:21:20;100699.81;;;10.07;100.00
52535;BME280;38443;53.164;5.802;2022-11-15T11:23:59;100699.75;;;10.08;100.00
52535;BME280;38443;53.164;5.802;2022-11-15T11:26:40;100690.81;;;10.09;100.00
52535;BME280;38443;53.164;5.802;2022-11-15T11:29:32;100685.44;;;10.09;100.00
52535;BME280;38443;53.164;5.802;2022-11-15T11:32:21;100684.53;;;10.10;100.00
52535;BME280;38443;53.164;5.802;2022-11-15T11:34:55;100685.41;;;10.11;100.00
52535;BME280;38443;53.164;5.802;2022-11-15T11:37:40;100688.06;;;10.12;100.00
52535;BME280;38443;53.164;5.802;2022-11-15T11:46:16;100678.22;;;10.13;99.08
52535;BME280;38443;53.164;5.802;2022-11-15T11:49:10;100671.00;;;10.16;98.32
52535;BME280;38443;53.164;5.802;2022-11-15T11:51:45;100660.19;;;10.19;98.41
52535;BME280;38443;53.164;5.802;2022-11-15T11:54:19;100665.38;;;10.24;98.02
52535;BME280;38443;53.164;5.802;2022-11-15T11:56:46;100661.75;;;10.27;98.00
52535;BME280;38443;53.164;5.802;2022-11-15T11:59:22;100649.13;;;10.32;98.48
52535;BME280;38443;53.164;5.802;2022-11-15T12:01:50;100649.75;;;10.40;98.87
52535;BME280;38443;53.164;5.802;2022-11-15T12:04:21;100654.09;;;10.44;98.01
52535;BME280;38443;53.164;5.802;2022-11-15T12:07:10;100647.78;;;10.47;97.08
52535;BME280;38443;53.164;5.802;2022-11-15T12:09:38;100646.75;;;10.51;96.89
52535;BME280;38443;53.164;5.802;2022-11-15T12:12:24;100639.41;;;10.57;97.29
52535;BME280;38443;53.164;5.802;2022-11-15T12:14:55;100641.19;;;10.57;97.28
52535;BME280;38443;53.164;5.802;2022-11-15T12:17:24;100645.78;;;10.53;96.26
52535;BME280;38443;53.164;5.802;2022-11-15T12:20:02;100640.53;;;10.50;95.84
52535;BME280;38443;53.164;5.802;2022-11-15T12:25:19;100635.66;;;10.63;96.05
52535;BME280;38443;53.164;5.802;2022-11-15T12:27:49;100634.16;;;10.81;95.69
52535;BME280;38443;53.164;5.802;2022-11-15T12:30:19;100640.66;;;11.01;95.44
52535;BME280;38443;53.164;5.802;2022-11-15T12:32:51;100628.28;;;11.22;92.84
52535;BME280;38443;53.164;5.802;2022-11-15T12:35:40;100631.91;;;11.21;89.95
52535;BME280;38443;53.164;5.802;2022-11-15T12:38:11;100635.50;;;11.20;88.49
52535;BME280;38443;53.164;5.802;2022-11-15T12:41:25;100626.03;;;11.34;88.36
52535;BME280;38443;53.164;5.802;2022-11-15T12:43:39;100622.03;;;11.46;87.09
52535;BME280;38443;53.164;5.802;2022-11-15T12:46:11;100622.72;;;11.53;85.99
52535;BME280;38443;53.164;5.802;2022-11-15T12:51:02;100613.72;;;11.54;81.54
52535;BME280;38443;53.164;5.802;2022-11-15T12:53:31;100612.22;;;11.47;85.89
52535;BME280;38443;53.164;5.802;2022-11-15T12:58:56;100611.88;;;11.06;84.19
52535;BME280;38443;53.164;5.802;2022-11-15T13:06:59;100605.91;;;10.72;86.14
52535;BME280;38443;53.164;5.802;2022-11-15T13:12:11;100591.00;;;10.64;87.81
52535;BME280;38443;53.164;5.802;2022-11-15T13:15:45;100582.28;;;10.58;87.25
52535;BME280;38443;53.164;5.802;2022-11-15T13:17:48;100585.03;;;10.55;86.78
52535;BME280;38443;53.164;5.802;2022-11-15T13:27:46;100564.22;;;10.38;84.41
52535;BME280;38443;53.164;5.802;2022-11-15T13:30:22;100563.44;;;10.35;84.29
52535;BME280;38443;53.164;5.802;2022-11-15T13:32:48;100571.53;;;10.32;84.97
52535;BME280;38443;53.164;5.802;2022-11-15T13:35:27;100560.91;;;10.30;86.07
52535;BME280;38443;53.164;5.802;2022-11-15T13:37:53;100563.59;;;10.29;86.74
52535;BME280;38443;53.164;5.802;2022-11-15T13:42:47;100548.41;;;10.31;86.60
52535;BME280;38443;53.164;5.802;2022-11-15T13:45:15;100553.75;;;10.31;86.66
52535;BME280;38443;53.164;5.802;2022-11-15T13:47:41;100553.78;;;10.29;87.71
52535;BME280;38443;53.164;5.802;2022-11-15T13:50:13;100544.09;;;10.25;87.96
52535;BME280;38443;53.164;5.802;2022-11-15T13:52:38;100551.31;;;10.23;87.27
52535;BME280;38443;53.164;5.802;2022-11-15T13:55:12;100545.16;;;10.19;88.28
52535;BME280;38443;53.164;5.802;2022-11-15T13:57:42;100539.13;;;10.14;88.95
52535;BME280;38443;53.164;5.802;2022-11-15T14:00:26;100530.38;;;10.08;88.97
52535;BME280;38443;53.164;5.802;2022-11-15T14:02:51;100526.09;;;10.02;89.12
52535;BME280;38443;53.164;5.802;2022-11-15T14:05:22;100534.28;;;9.97;89.15
52535;BME280;38443;53.164;5.802;2022-11-15T14:07:56;100529.97;;;9.93;89.46
52535;BME280;38443;53.164;5.802;2022-11-15T14:10:25;100527.50;;;9.87;89.77
52535;BME280;38443;53.164;5.802;2022-11-15T14:12:52;100525.00;;;9.81;90.76
52535;BME280;38443;53.164;5.802;2022-11-15T14:15:28;100529.56;;;9.77;90.64
52535;BME280;38443;53.164;5.802;2022-11-15T14:17:54;100526.06;;;9.75;90.49
52535;BME280;38443;53.164;5.802;2022-11-15T14:20:34;100521.75;;;9.71;89.85
52535;BME280;38443;53.164;5.802;2022-11-15T14:23:00;100516.50;;;9.68;90.19
52535;BME280;38443;53.164;5.802;2022-11-15T14:25:33;100514.84;;;9.64;89.67
52535;BME280;38443;53.164;5.802;2022-11-15T14:30:36;100514.19;;;9.56;88.91
52535;BME280;38443;53.164;5.802;2022-11-15T14:33:14;100504.50;;;9.52;88.61
52535;BME280;38443;53.164;5.802;2022-11-15T14:35:42;100505.59;;;9.46;88.41
52535;BME280;38443;53.164;5.802;2022-11-15T14:38:07;100495.06;;;9.40;89.39
52535;BME280;38443;53.164;5.802;2022-11-15T14:40:32;100492.56;;;9.35;90.06
52535;BME280;38443;53.164;5.802;2022-11-15T14:42:57;100495.38;;;9.31;90.21
52535;BME280;38443;53.164;5.802;2022-11-15T14:45:23;100495.41;;;9.29;91.15
52535;BME280;38443;53.164;5.802;2022-11-15T14:47:48;100489.34;;;9.24;90.31
52535;BME280;38443;53.164;5.802;2022-11-15T14:50:14;100481.41;;;9.21;91.38